This is the latest recevied weather packets stored in our database for station/object KG4IFE-13. If no packets are shown the sender has not sent any weather packets the latest 10 day(s).
| Time | Temp. | Humidity | Pressure | Rain* | Wind** | Luminosity | Snow |
|---|---|---|---|---|---|---|---|
| 1777042108 | 23.33° C | 53% | 1012.7 hPa | - | - | - | - |
| 1777040602 | 22.22° C | 54% | 1012.9 hPa | - | - | - | - |
| 1777038495 | 21.67° C | 58% | 1013.3 hPa | - | - | - | - |
| 1777038195 | 21.67° C | 58% | 1013.3 hPa | - | - | - | - |
| 1777035786 | 18.89° C | 68% | 1013.7 hPa | - | - | - | - |
| 1777034885 | 16.67° C | 72% | 1013.8 hPa | - | - | - | - |
| 1777032776 | 14.44° C | 74% | 1013.8 hPa | - | - | - | - |
| 1777032174 | 14.44° C | 74% | 1013.7 hPa | - | - | - | - |
| 1777031572 | 13.89° C | 75% | 1013.8 hPa | - | - | - | - |
| 1777030368 | 12.78° C | 77% | 1013.8 hPa | - | - | - | - |
| 1777030067 | 11.67° C | 77% | 1013.7 hPa | - | - | - | - |
| 1777029485 | 11.67° C | 77% | 1013.7 hPa | - | - | - | - |
| 1777026756 | 11.67° C | 76% | 1013.2 hPa | - | - | - | - |
| 1777024950 | 11.67° C | 75% | 1013.2 hPa | - | - | - | - |
| 1777023145 | 11.67° C | 75% | 1013.1 hPa | - | - | - | - |
| 1777022845 | 11.67° C | 75% | 1013 hPa | - | - | - | - |
| 1777016825 | 13.33° C | 69% | 1012.9 hPa | - | - | - | - |
| 1777015619 | 13.33° C | 68% | 1012.8 hPa | - | - | - | - |
| 1777015017 | 13.89° C | 68% | 1012.8 hPa | - | - | - | - |
| 1777014717 | 13.89° C | 68% | 1012.8 hPa | - | - | - | - |
| 1777014114 | 13.89° C | 67% | 1012.7 hPa | - | - | - | - |
| 1777012910 | 14.44° C | 66% | 1012.7 hPa | - | - | - | - |
| 1777012007 | 14.44° C | 65% | 1012.7 hPa | - | - | - | - |
| 1777011706 | 14.44° C | 65% | 1012.8 hPa | - | - | - | - |
| 1777010502 | 14.44° C | 64% | 1013 hPa | - | - | - | - |
* Rain since midnight (hover to see other rain measurements)
** Current wind speed in m/s (hover to see current wind gust speed)